Time;durP1;ratioP1;P1;durP2;ratioP2;P2;SDS_P1;SDS_P2;PMS_P1;PMS_P2;Temp;Humidity;BMP_temperature;BMP_pressure;BME280_temperature;BME280_humidity;BME280_pressure;Samples;Min_cycle;Max_cycle;Signal;HPM_P1;HPM_P2
2022/10/03 00:02:12;;;;;;;16.23;8.03;;;18.30;91.50;;;;;;4988288;28;20531;-80
2022/10/03 00:05:10;;;;;;;15.50;6.80;;;18.30;91.40;;;;;;4968885;28;20554;-79
2022/10/03 00:07:59;;;;;;;9.70;6.17;;;18.30;91.50;;;;;;4987209;28;20221;-79
2022/10/03 00:10:35;;;;;;;11.33;6.93;;;18.30;91.40;;;;;;4993124;28;20272;-80
2022/10/03 00:13:24;;;;;;;9.17;6.60;;;18.30;91.50;;;;;;4983560;28;20209;-80
2022/10/03 00:16:07;;;;;;;18.53;7.03;;;18.30;91.50;;;;;;4986788;28;20209;-80
2022/10/03 00:19:03;;;;;;;10.63;6.30;;;18.30;91.60;;;;;;4995597;28;20208;-80
2022/10/03 00:22:28;;;;;;;9.40;6.40;;;18.30;91.60;;;;;;4985300;28;20676;-79
2022/10/03 00:25:01;;;;;;;7.97;5.80;;;18.20;91.60;;;;;;4997576;28;20223;-80
2022/10/03 00:27:31;;;;;;;6.37;5.77;;;18.30;91.60;;;;;;5009981;28;20218;-80
2022/10/03 00:30:17;;;;;;;8.90;6.80;;;18.30;91.60;;;;;;4988700;28;20578;-79
2022/10/03 00:33:08;;;;;;;8.43;6.00;;;18.30;91.70;;;;;;4980493;28;20198;-79
2022/10/03 00:36:10;;;;;;;8.63;5.63;;;18.30;91.70;;;;;;4990147;28;20240;-80
2022/10/03 00:38:51;;;;;;;8.10;5.47;;;18.30;91.70;;;;;;4951286;28;20205;-80
2022/10/03 00:41:33;;;;;;;6.73;5.50;;;18.40;91.80;;;;;;4989090;28;20215;-79
2022/10/03 00:44:06;;;;;;;8.90;5.20;;;18.30;91.80;;;;;;4976553;28;20302;-80
2022/10/03 00:46:47;;;;;;;11.63;5.57;;;18.40;91.80;;;;;;4982624;28;20204;-80
2022/10/03 00:49:55;;;;;;;11.77;5.23;;;18.40;91.80;;;;;;4992525;28;20253;-79
2022/10/03 00:52:43;;;;;;;9.57;6.00;;;18.40;91.90;;;;;;4995203;28;20240;-79
2022/10/03 00:55:33;;;;;;;12.33;5.80;;;18.40;91.90;;;;;;4983186;28;20689;-80
2022/10/03 00:58:06;;;;;;;7.27;5.83;;;18.40;91.90;;;;;;4978871;28;20210;-80
2022/10/03 01:00:34;;;;;;;10.47;6.30;;;18.40;91.90;;;;;;4988912;28;20714;-80
2022/10/03 01:03:33;;;;;;;9.97;6.07;;;18.30;91.90;;;;;;4989919;28;20199;-80
2022/10/03 01:06:25;;;;;;;7.10;6.03;;;18.40;91.90;;;;;;4996319;28;20214;-81
2022/10/03 01:09:11;;;;;;;8.77;6.10;;;18.40;92.00;;;;;;4985306;28;20206;-80
2022/10/03 01:11:50;;;;;;;9.37;5.97;;;18.30;91.90;;;;;;4991757;28;20230;-81
2022/10/03 01:14:18;;;;;;;11.43;6.23;;;18.30;91.90;;;;;;4990751;28;20219;-81
2022/10/03 01:16:58;;;;;;;7.70;5.63;;;18.30;91.90;;;;;;4992415;28;20213;-80
2022/10/03 01:19:45;;;;;;;14.43;6.43;;;18.30;91.90;;;;;;4992535;28;20218;-80
2022/10/03 01:22:54;;;;;;;12.83;5.87;;;18.40;91.90;;;;;;4978379;28;20638;-80
2022/10/03 01:25:25;;;;;;;8.97;5.47;;;18.40;92.00;;;;;;4969068;28;20680;-80
2022/10/03 01:31:03;;;;;;;9.40;6.23;;;18.40;92.00;;;;;;4994974;28;20233;-81
2022/10/03 01:33:41;;;;;;;9.47;5.47;;;18.40;92.00;;;;;;4992128;28;20581;-80
2022/10/03 01:36:18;;;;;;;8.13;5.50;;;18.40;92.10;;;;;;4997628;28;20202;-80
2022/10/03 01:39:22;;;;;;;8.53;5.30;;;18.40;92.10;;;;;;4991785;28;20207;-80
2022/10/03 01:41:59;;;;;;;6.73;5.03;;;18.40;92.10;;;;;;4991996;28;20205;-80
2022/10/03 01:44:54;;;;;;;11.40;5.93;;;18.40;92.10;;;;;;4995227;28;20210;-82
2022/10/03 01:47:21;;;;;;;7.70;5.17;;;18.40;92.20;;;;;;4993482;28;20198;-80
2022/10/03 01:50:12;;;;;;;7.73;5.43;;;18.50;92.20;;;;;;4986547;28;20199;-80
2022/10/03 01:52:58;;;;;;;7.07;5.30;;;18.50;92.20;;;;;;4989172;28;20241;-80
2022/10/03 01:55:35;;;;;;;9.93;6.30;;;18.50;92.10;;;;;;4994805;28;20276;-80
2022/10/03 01:58:16;;;;;;;11.47;6.87;;;18.50;92.10;;;;;;4969286;28;20214;-80
2022/10/03 02:01:08;;;;;;;11.30;6.30;;;18.50;92.20;;;;;;4992324;28;20206;-80
2022/10/03 02:04:05;;;;;;;12.97;6.20;;;18.50;92.10;;;;;;4995480;28;20229;-80
2022/10/03 02:07:12;;;;;;;7.57;5.90;;;18.60;92.10;;;;;;4992138;28;20211;-80
2022/10/03 02:09:54;;;;;;;11.33;6.80;;;18.50;92.10;;;;;;4996048;28;20225;-80
2022/10/03 02:12:21;;;;;;;11.90;8.13;;;18.60;92.10;;;;;;4986986;28;20229;-80
2022/10/03 02:14:58;;;;;;;13.43;7.83;;;18.60;92.10;;;;;;4975276;28;20219;-80
2022/10/03 02:17:43;;;;;;;11.50;7.97;;;18.60;92.10;;;;;;4980232;28;20231;-80
2022/10/03 02:20:22;;;;;;;12.20;7.77;;;18.60;92.20;;;;;;4987213;28;20269;-81
2022/10/03 02:22:53;;;;;;;10.03;7.47;;;18.60;92.10;;;;;;4974095;28;20596;-80
2022/10/03 02:25:41;;;;;;;8.93;6.83;;;18.60;92.10;;;;;;4994667;28;20207;-79
2022/10/03 02:28:08;;;;;;;13.07;7.50;;;18.60;92.20;;;;;;4997607;28;20696;-80
2022/10/03 02:30:46;;;;;;;11.37;7.67;;;18.60;92.10;;;;;;4989999;28;20606;-81
2022/10/03 02:33:47;;;;;;;11.03;8.10;;;18.60;92.20;;;;;;4997895;28;20225;-81
2022/10/03 02:36:20;;;;;;;11.97;8.43;;;18.70;92.10;;;;;;4989259;28;20499;-80
2022/10/03 02:39:00;;;;;;;9.77;8.03;;;18.60;91.90;;;;;;4987858;28;20600;-80
2022/10/03 02:41:31;;;;;;;12.13;8.87;;;18.60;92.00;;;;;;4989067;28;20215;-81
2022/10/03 02:44:16;;;;;;;8.97;7.87;;;18.60;92.00;;;;;;4995264;28;20207;-80
2022/10/03 02:47:04;;;;;;;21.23;9.73;;;18.50;92.10;;;;;;4994142;28;20223;-81
2022/10/03 02:49:53;;;;;;;16.23;9.53;;;18.50;92.10;;;;;;4976311;28;20283;-80
2022/10/03 02:52:58;;;;;;;12.23;8.63;;;18.50;92.00;;;;;;4993067;28;20239;-80
2022/10/03 02:55:43;;;;;;;10.93;7.87;;;18.50;92.00;;;;;;4999756;28;20240;-81
2022/10/03 02:58:28;;;;;;;12.40;9.43;;;18.40;92.00;;;;;;4976218;28;20300;-80
2022/10/03 03:01:14;;;;;;;11.37;8.33;;;18.30;92.20;;;;;;5001260;28;20213;-81
2022/10/03 03:04:13;;;;;;;13.50;8.00;;;18.20;92.40;;;;;;4990498;28;20211;-80
2022/10/03 03:06:59;;;;;;;11.93;9.60;;;18.20;92.60;;;;;;4993350;28;20208;-80
2022/10/03 03:09:38;;;;;;;17.07;9.27;;;18.30;92.70;;;;;;4991707;28;20599;-81
2022/10/03 03:12:27;;;;;;;13.37;9.33;;;18.20;92.80;;;;;;4994047;28;20214;-81
2022/10/03 03:15:12;;;;;;;12.73;10.30;;;18.20;92.90;;;;;;5010122;28;20220;-81
2022/10/03 03:18:15;;;;;;;17.37;11.37;;;18.30;93.00;;;;;;4990372;28;20222;-80
2022/10/03 03:21:19;;;;;;;12.37;9.97;;;18.30;93.10;;;;;;4989458;28;20226;-81
2022/10/03 03:24:04;;;;;;;18.57;11.17;;;18.30;93.20;;;;;;4985868;28;20214;-81
2022/10/03 03:26:34;;;;;;;15.23;10.80;;;18.30;93.20;;;;;;4970021;28;20870;-80
2022/10/03 03:29:23;;;;;;;16.00;10.87;;;18.30;93.20;;;;;;4990958;28;20208;-81
2022/10/03 03:32:09;;;;;;;16.43;11.50;;;18.30;93.20;;;;;;4990508;28;20219;-81
2022/10/03 03:35:03;;;;;;;17.70;12.37;;;18.40;93.20;;;;;;4999209;28;20207;-80
2022/10/03 03:37:48;;;;;;;17.23;10.83;;;18.40;93.20;;;;;;4995078;28;20221;-80
2022/10/03 03:40:50;;;;;;;16.60;12.03;;;18.50;93.20;;;;;;4996852;28;20211;-80
2022/10/03 03:43:43;;;;;;;13.20;10.97;;;18.50;93.20;;;;;;4990569;28;20226;-80
2022/10/03 03:46:39;;;;;;;16.67;11.10;;;18.50;93.10;;;;;;4983854;28;20205;-80
2022/10/03 03:49:28;;;;;;;19.60;12.03;;;18.50;93.10;;;;;;4992305;28;20342;-81
2022/10/03 03:52:29;;;;;;;15.83;11.77;;;18.50;93.10;;;;;;4991449;28;20237;-80
2022/10/03 03:55:05;;;;;;;14.73;12.13;;;18.50;93.10;;;;;;4992713;28;20572;-80
2022/10/03 03:57:35;;;;;;;14.17;11.03;;;18.50;93.10;;;;;;4990370;28;20205;-80
2022/10/03 04:00:11;;;;;;;17.43;11.97;;;18.50;93.10;;;;;;4986416;28;20215;-81
2022/10/03 04:03:09;;;;;;;17.57;12.43;;;18.50;93.20;;;;;;4987050;28;20206;-81
2022/10/03 04:05:45;;;;;;;14.37;11.67;;;18.50;93.20;;;;;;4985665;28;20213;-81
2022/10/03 04:08:37;;;;;;;17.20;11.87;;;18.50;93.20;;;;;;5002067;28;20222;-80
2022/10/03 04:11:11;;;;;;;16.27;12.00;;;18.50;93.20;;;;;;4986271;28;20225;-80
2022/10/03 04:14:05;;;;;;;17.30;11.53;;;18.50;93.30;;;;;;4979439;28;20211;-81
2022/10/03 04:19:53;;;;;;;14.37;10.93;;;18.50;93.30;;;;;;4983035;28;20188;-81
2022/10/03 04:22:33;;;;;;;14.13;11.10;;;18.50;93.30;;;;;;4970604;28;20273;-80
2022/10/03 04:25:33;;;;;;;17.07;12.10;;;18.50;93.30;;;;;;4994530;28;20216;-80
2022/10/03 04:28:37;;;;;;;19.97;13.40;;;18.50;93.40;;;;;;4990686;28;20235;-80
2022/10/03 04:31:42;;;;;;;13.60;10.57;;;18.40;93.30;;;;;;4985430;28;20233;-81
2022/10/03 04:34:17;;;;;;;13.33;10.73;;;18.40;93.40;;;;;;4990442;28;20224;-81
2022/10/03 04:37:11;;;;;;;17.57;11.77;;;18.40;93.40;;;;;;4978636;28;20697;-80
2022/10/03 04:39:42;;;;;;;14.20;10.83;;;18.40;93.40;;;;;;4983676;28;20204;-81
2022/10/03 04:42:26;;;;;;;13.60;11.27;;;18.40;93.30;;;;;;4992094;28;20548;-81
2022/10/03 04:45:30;;;;;;;13.97;10.50;;;18.40;93.30;;;;;;4975945;28;20272;-81
2022/10/03 04:48:16;;;;;;;17.50;11.13;;;18.40;93.30;;;;;;4986482;28;20213;-81
2022/10/03 04:51:06;;;;;;;15.57;10.90;;;18.30;93.30;;;;;;4990739;28;20216;-81
2022/10/03 04:53:40;;;;;;;15.87;10.20;;;18.30;93.30;;;;;;4989794;28;20654;-81
2022/10/03 04:56:30;;;;;;;17.13;10.87;;;18.20;93.30;;;;;;4966749;28;20209;-81
2022/10/03 04:59:18;;;;;;;15.10;10.60;;;18.20;93.30;;;;;;4987756;28;20206;-81
2022/10/03 05:02:13;;;;;;;17.60;10.67;;;18.20;93.30;;;;;;4989244;28;20254;-81
2022/10/03 05:05:10;;;;;;;13.40;11.43;;;18.10;93.30;;;;;;4990655;28;20205;-81
2022/10/03 05:07:47;;;;;;;16.77;12.30;;;18.10;93.30;;;;;;4989978;28;20235;-82
2022/10/03 05:10:35;;;;;;;20.53;11.43;;;18.00;93.30;;;;;;4984111;28;20221;-81
2022/10/03 05:13:17;;;;;;;20.77;10.73;;;18.00;93.30;;;;;;4984538;28;20595;-81
2022/10/03 05:16:01;;;;;;;13.50;10.30;;;17.90;93.40;;;;;;4975897;28;20204;-81
2022/10/03 05:18:40;;;;;;;19.37;11.57;;;17.80;93.30;;;;;;4988143;28;20266;-81
2022/10/03 05:21:13;;;;;;;15.20;11.40;;;17.80;93.40;;;;;;4991713;28;20208;-81
2022/10/03 05:24:19;;;;;;;18.27;11.23;;;17.70;93.40;;;;;;4966689;28;20649;-81
2022/10/03 05:27:14;;;;;;;12.30;10.53;;;17.70;93.50;;;;;;4990804;28;20271;-81
2022/10/03 05:30:05;;;;;;;18.40;11.47;;;17.70;93.40;;;;;;4971615;28;20217;-80
2022/10/03 05:32:56;;;;;;;16.87;10.67;;;17.60;93.30;;;;;;4969131;28;20317;-81
2022/10/03 05:35:38;;;;;;;16.27;10.97;;;17.60;93.30;;;;;;4976795;28;20209;-81
2022/10/03 05:38:22;;;;;;;14.30;11.27;;;17.60;93.20;;;;;;4992080;28;20225;-81
2022/10/03 05:41:04;;;;;;;17.53;11.17;;;17.60;93.10;;;;;;4973098;28;20655;-81
2022/10/03 05:44:01;;;;;;;14.90;10.87;;;17.50;93.00;;;;;;4974872;28;20228;-81
2022/10/03 05:46:53;;;;;;;16.87;11.27;;;17.50;93.00;;;;;;4989414;28;20213;-81
2022/10/03 05:49:28;;;;;;;14.77;10.80;;;17.40;93.00;;;;;;4984557;28;20665;-80
2022/10/03 05:52:06;;;;;;;17.63;11.50;;;17.40;93.10;;;;;;4979472;28;20244;-81
2022/10/03 05:54:55;;;;;;;21.50;10.77;;;17.40;93.10;;;;;;4979201;28;20198;-81
2022/10/03 05:58:06;;;;;;;16.67;11.23;;;17.40;93.10;;;;;;4993411;28;20278;-81
2022/10/03 06:00:57;;;;;;;18.67;11.43;;;17.50;93.10;;;;;;4984411;28;20209;-81
2022/10/03 06:03:53;;;;;;;11.40;10.20;;;17.50;93.10;;;;;;4976672;28;20548;-81
2022/10/03 06:07:01;;;;;;;21.07;12.00;;;17.50;93.10;;;;;;4994647;28;20272;-81
2022/10/03 06:10:04;;;;;;;16.90;11.30;;;17.60;93.10;;;;;;4987435;28;20260;-80
2022/10/03 06:12:46;;;;;;;21.77;11.63;;;17.60;93.00;;;;;;4966008;28;20696;-81
2022/10/03 06:15:48;;;;;;;15.30;11.20;;;17.70;92.90;;;;;;4992291;28;20224;-81
2022/10/03 06:18:49;;;;;;;20.03;10.63;;;17.70;93.00;;;;;;4980485;28;20209;-81
2022/10/03 06:21:40;;;;;;;19.13;11.67;;;17.80;92.90;;;;;;4987777;28;20210;-81
2022/10/03 06:24:37;;;;;;;12.53;10.77;;;17.90;92.90;;;;;;4997879;28;20625;-82
2022/10/03 06:27:45;;;;;;;15.93;10.80;;;18.00;92.80;;;;;;4997370;28;20568;-81
2022/10/03 06:30:31;;;;;;;16.47;11.70;;;18.00;92.70;;;;;;4990143;28;20403;-81
2022/10/03 06:33:20;;;;;;;15.33;10.77;;;18.10;92.50;;;;;;4982398;28;20229;-80
2022/10/03 06:36:06;;;;;;;16.83;10.67;;;18.20;92.40;;;;;;4994918;28;20193;-80
2022/10/03 06:38:36;;;;;;;16.83;11.00;;;18.30;92.30;;;;;;4999210;28;20197;-81
2022/10/03 06:41:29;;;;;;;13.63;10.00;;;18.40;92.30;;;;;;4998664;28;20228;-82
2022/10/03 06:43:56;;;;;;;14.77;10.17;;;18.40;92.20;;;;;;4988360;28;20201;-80
2022/10/03 06:46:54;;;;;;;16.07;10.47;;;18.50;92.20;;;;;;4991110;28;20221;-81
2022/10/03 06:49:49;;;;;;;18.73;9.23;;;18.60;92.10;;;;;;4994319;28;20237;-81
2022/10/03 06:52:42;;;;;;;19.43;10.47;;;18.60;92.00;;;;;;4994682;28;20261;-80
2022/10/03 06:55:28;;;;;;;21.27;10.17;;;18.70;91.90;;;;;;4995036;28;20235;-81
2022/10/03 06:58:18;;;;;;;11.70;9.70;;;18.80;91.90;;;;;;4997339;28;20718;-81
2022/10/03 07:01:10;;;;;;;11.80;10.00;;;18.80;91.80;;;;;;4978408;28;20214;-80
2022/10/03 07:03:53;;;;;;;13.50;9.97;;;18.90;91.70;;;;;;4991356;28;20230;-81
2022/10/03 07:06:42;;;;;;;15.07;10.70;;;18.90;91.60;;;;;;4992714;28;20207;-81
2022/10/03 07:09:31;;;;;;;15.83;11.67;;;19.00;91.60;;;;;;4969275;28;20304;-81
2022/10/03 07:12:46;;;;;;;16.87;11.33;;;19.00;91.30;;;;;;4982313;28;20551;-81
2022/10/03 07:15:50;;;;;;;13.20;11.07;;;19.20;91.30;;;;;;4983287;28;20225;-81
2022/10/03 07:19:15;;;;;;;16.10;11.23;;;19.20;91.30;;;;;;4991341;28;20213;-81
2022/10/03 07:21:46;;;;;;;17.67;11.57;;;19.40;91.10;;;;;;4992087;28;20226;-81
2022/10/03 07:24:43;;;;;;;15.60;11.30;;;19.50;90.90;;;;;;4986136;28;20223;-81
2022/10/03 07:27:30;;;;;;;16.70;12.40;;;19.60;90.90;;;;;;4990852;28;20226;-81
2022/10/03 07:30:33;;;;;;;13.93;11.00;;;19.80;90.70;;;;;;4984425;28;20215;-81
2022/10/03 07:33:44;;;;;;;15.90;11.10;;;19.90;90.40;;;;;;4977498;28;20238;-81
2022/10/03 07:40:12;;;;;;;12.33;11.13;;;20.30;89.80;;;;;;4984929;28;20219;-81
2022/10/03 07:43:01;;;;;;;32.43;12.23;;;20.40;88.40;;;;;;4985220;28;20579;-81
2022/10/03 07:45:52;;;;;;;15.70;11.00;;;20.50;88.00;;;;;;4986580;28;20226;-81
2022/10/03 07:48:42;;;;;;;13.67;11.90;;;20.70;88.10;;;;;;4990724;28;20216;-81
2022/10/03 07:51:20;;;;;;;19.83;11.77;;;20.80;87.70;;;;;;4979445;28;20275;-81
2022/10/03 07:54:07;;;;;;;15.57;12.03;;;21.00;87.50;;;;;;4993454;28;20254;-80
2022/10/03 07:57:20;;;;;;;14.03;11.97;;;21.20;86.70;;;;;;4968227;28;20204;-81
2022/10/03 07:59:57;;;;;;;15.87;11.13;;;21.40;86.20;;;;;;4983207;28;20620;-81
2022/10/03 08:02:39;;;;;;;17.80;10.60;;;21.60;85.70;;;;;;4991279;28;20211;-81
2022/10/03 08:05:47;;;;;;;17.57;11.13;;;21.80;85.00;;;;;;4990702;28;20203;-81
2022/10/03 08:09:12;;;;;;;15.00;11.23;;;22.00;83.40;;;;;;4976987;28;20561;-81
2022/10/03 08:12:05;;;;;;;17.30;12.30;;;22.10;81.50;;;;;;4958105;28;20559;-81
2022/10/03 08:14:44;;;;;;;24.00;14.50;;;22.20;81.30;;;;;;4981937;28;20743;-84
2022/10/03 08:17:34;;;;;;;15.50;12.87;;;22.10;81.10;;;;;;4985724;28;20205;-81
2022/10/03 08:20:37;;;;;;;15.33;12.47;;;22.00;80.50;;;;;;4993524;28;20208;-81
2022/10/03 08:23:26;;;;;;;19.83;15.07;;;21.90;81.40;;;;;;4995375;28;20586;-81
2022/10/03 08:26:05;;;;;;;19.67;13.87;;;21.80;81.70;;;;;;4995320;28;20232;-81
2022/10/03 08:28:40;;;;;;;20.10;14.77;;;21.80;81.70;;;;;;4990592;28;20291;-82
2022/10/03 08:31:19;;;;;;;17.60;12.20;;;21.80;81.90;;;;;;4976210;28;20259;-80
2022/10/03 08:34:38;;;;;;;18.53;13.67;;;21.70;81.20;;;;;;4987224;28;20255;-80
2022/10/03 08:37:37;;;;;;;22.27;12.57;;;21.70;81.50;;;;;;4988335;28;20208;-80
2022/10/03 08:40:26;;;;;;;17.40;11.80;;;21.80;81.30;;;;;;4969858;28;20255;-80
2022/10/03 08:42:56;;;;;;;12.63;11.27;;;21.90;81.20;;;;;;4989222;28;20200;-81
2022/10/03 08:45:56;;;;;;;12.50;11.30;;;22.10;81.00;;;;;;4971738;28;20216;-80
2022/10/03 08:48:58;;;;;;;15.53;10.83;;;22.40;80.20;;;;;;4990455;28;20603;-81
2022/10/03 08:51:49;;;;;;;14.80;11.60;;;22.60;78.80;;;;;;4985004;28;20267;-80
2022/10/03 08:54:50;;;;;;;18.43;12.20;;;22.90;78.10;;;;;;4984943;28;20225;-81
2022/10/03 08:57:49;;;;;;;14.20;12.43;;;23.10;77.60;;;;;;4974250;28;20209;-81
2022/10/03 09:00:20;;;;;;;13.90;11.60;;;23.30;76.80;;;;;;4992387;28;20228;-81
2022/10/03 09:03:02;;;;;;;13.67;12.27;;;23.40;76.10;;;;;;4991162;28;20259;-81
2022/10/03 09:06:18;;;;;;;17.63;11.87;;;23.50;75.30;;;;;;4984172;28;20401;-81
2022/10/03 09:09:23;;;;;;;19.50;13.00;;;23.70;74.90;;;;;;5004107;28;20283;-81
2022/10/03 09:12:30;;;;;;;19.57;12.37;;;23.80;73.40;;;;;;4992689;28;20216;-81
2022/10/03 09:15:08;;;;;;;19.13;12.80;;;23.80;73.80;;;;;;4958831;28;20212;-81
2022/10/03 09:18:00;;;;;;;18.50;13.47;;;23.80;72.80;;;;;;4991256;28;20219;-81
2022/10/03 09:20:49;;;;;;;17.27;12.67;;;23.80;73.40;;;;;;4971346;28;20209;-81
2022/10/03 09:23:39;;;;;;;18.40;13.00;;;23.80;73.70;;;;;;4994920;28;20200;-80
2022/10/03 09:26:41;;;;;;;13.80;10.43;;;23.80;73.80;;;;;;4984561;28;20222;-80
2022/10/03 09:29:39;;;;;;;15.13;10.70;;;23.90;74.20;;;;;;4982610;28;20220;-81
2022/10/03 09:35:34;;;;;;;16.40;11.60;;;24.20;72.80;;;;;;5011143;28;20223;-67
2022/10/03 09:38:26;;;;;;;17.13;9.70;;;24.40;72.30;;;;;;5011776;28;20641;-63
2022/10/03 09:41:27;;;;;;;14.63;9.90;;;24.40;71.90;;;;;;5008546;28;20616;-68
2022/10/03 09:44:26;;;;;;;13.67;9.33;;;24.50;71.80;;;;;;4998558;28;20706;-64
2022/10/03 09:50:27;;;;;;;13.60;7.77;;;24.80;70.10;;;;;;5006579;28;20212;-65
2022/10/03 09:53:29;;;;;;;10.40;7.87;;;24.80;69.70;;;;;;5004918;28;20575;-66
2022/10/03 09:56:15;;;;;;;11.73;9.70;;;25.00;70.10;;;;;;5014645;28;20228;-65
2022/10/03 09:58:47;;;;;;;11.00;8.30;;;25.10;69.40;;;;;;5012103;28;20200;-64
2022/10/03 10:01:24;;;;;;;13.80;9.63;;;25.20;69.20;;;;;;5015434;28;20204;-67
2022/10/03 10:04:21;;;;;;;15.20;9.03;;;25.30;68.60;;;;;;5012850;28;20284;-68
2022/10/03 10:07:47;;;;;;;18.23;9.57;;;25.50;67.70;;;;;;5015027;28;20223;-68
2022/10/03 10:10:44;;;;;;;11.37;7.97;;;25.60;67.10;;;;;;4997320;28;20239;-69
2022/10/03 10:13:48;;;;;;;9.40;7.93;;;25.80;67.30;;;;;;5012836;28;20243;-67
2022/10/03 10:16:59;;;;;;;10.73;7.13;;;25.90;66.90;;;;;;5012233;28;20203;-66
2022/10/03 10:19:49;;;;;;;12.37;7.90;;;26.10;66.80;;;;;;5029680;28;20216;-66
2022/10/03 10:22:31;;;;;;;15.17;8.40;;;26.30;65.20;;;;;;5008473;28;20202;-66
2022/10/03 10:25:16;;;;;;;12.87;8.17;;;26.40;65.10;;;;;;5013397;28;20268;-68
2022/10/03 10:28:21;;;;;;;12.33;7.53;;;26.50;64.90;;;;;;5002718;28;20196;-68
2022/10/03 10:31:22;;;;;;;13.87;7.60;;;26.60;64.60;;;;;;5012276;28;20250;-69
2022/10/03 10:34:11;;;;;;;11.23;6.23;;;26.80;64.10;;;;;;5013581;28;20239;-68
2022/10/03 10:37:08;;;;;;;13.17;6.10;;;26.90;63.40;;;;;;5014587;28;20210;-69
2022/10/03 10:40:05;;;;;;;10.80;6.80;;;27.00;63.10;;;;;;5028169;28;20264;-66
2022/10/03 10:43:30;;;;;;;9.97;6.40;;;27.20;62.90;;;;;;5013576;28;20404;-66
2022/10/03 10:46:15;;;;;;;12.27;6.50;;;27.30;61.50;;;;;;4957710;28;20209;-67
2022/10/03 10:49:03;;;;;;;9.80;6.17;;;27.40;61.30;;;;;;4956401;28;20300;-65
2022/10/03 10:52:01;;;;;;;10.67;5.47;;;27.50;61.40;;;;;;4999429;28;20277;-65
2022/10/03 10:54:54;;;;;;;8.80;6.00;;;27.50;60.60;;;;;;4997285;28;20221;-64
2022/10/03 10:57:46;;;;;;;12.77;5.70;;;27.60;60.10;;;;;;4992227;28;20274;-67
2022/10/03 11:00:27;;;;;;;14.13;6.10;;;27.70;59.80;;;;;;5013374;28;20261;-66
2022/10/03 11:03:03;;;;;;;6.97;4.43;;;27.70;59.60;;;;;;5012986;28;20213;-66
2022/10/03 11:05:54;;;;;;;8.33;4.50;;;27.50;59.00;;;;;;5013088;28;20297;-66
2022/10/03 11:09:06;;;;;;;9.53;4.40;;;27.30;59.60;;;;;;5012948;28;20192;-66
2022/10/03 11:12:28;;;;;;;10.93;4.17;;;27.30;60.50;;;;;;4987472;28;20652;-61
2022/10/03 11:15:13;;;;;;;10.00;3.93;;;27.40;60.20;;;;;;4957810;28;20844;-66
2022/10/03 11:18:21;;;;;;;8.63;4.10;;;27.60;59.80;;;;;;5009914;28;20229;-66
2022/10/03 11:21:27;;;;;;;11.83;5.47;;;27.70;59.80;;;;;;5012904;28;20573;-65
2022/10/03 11:24:18;;;;;;;10.73;5.10;;;27.80;59.60;;;;;;4966199;28;20223;-66
2022/10/03 11:27:05;;;;;;;5.13;3.80;;;28.00;59.60;;;;;;4984817;28;20279;-65
2022/10/03 11:30:02;;;;;;;12.40;5.03;;;28.10;59.40;;;;;;5010396;28;20543;-67
2022/10/03 11:33:13;;;;;;;7.90;3.83;;;28.20;58.00;;;;;;5011919;28;20195;-64
2022/10/03 11:35:40;;;;;;;7.17;4.50;;;28.00;58.20;;;;;;5014156;28;20215;-64
2022/10/03 11:38:23;;;;;;;8.77;3.80;;;27.70;58.30;;;;;;5009062;28;20207;-68
2022/10/03 11:41:23;;;;;;;8.93;4.73;;;27.50;58.90;;;;;;5010152;28;20237;-64
2022/10/03 11:44:08;;;;;;;11.53;5.20;;;27.20;60.30;;;;;;4967103;28;20221;-65
2022/10/03 11:47:03;;;;;;;10.80;5.37;;;26.80;61.10;;;;;;5012729;28;20258;-66
2022/10/03 11:50:12;;;;;;;9.07;5.40;;;26.60;61.90;;;;;;5008140;28;20210;-66
2022/10/03 11:53:05;;;;;;;14.60;5.47;;;26.40;63.00;;;;;;4979364;28;20244;-66
2022/10/03 11:55:44;;;;;;;7.87;4.73;;;26.40;63.20;;;;;;5041368;22;20243;-65
2022/10/03 11:58:35;;;;;;;9.40;4.67;;;26.50;62.80;;;;;;5059823;28;20205;-66
2022/10/03 12:01:07;;;;;;;10.57;3.73;;;26.60;62.50;;;;;;5063141;28;20206;-66
2022/10/03 12:04:04;;;;;;;6.97;3.93;;;26.60;63.00;;;;;;5045204;28;20681;-66
2022/10/03 12:10:14;;;;;;;11.77;4.80;;;26.20;62.00;;;;;;5056645;28;20198;-66
2022/10/03 12:13:04;;;;;;;9.03;5.53;;;26.00;62.70;;;;;;5023330;28;20219;-65
2022/10/03 12:15:48;;;;;;;6.27;3.83;;;25.90;63.50;;;;;;5061605;28;20210;-66
2022/10/03 12:18:19;;;;;;;12.83;4.73;;;25.80;64.30;;;;;;5057500;28;20203;-66
2022/10/03 12:21:01;;;;;;;9.30;4.07;;;25.80;64.50;;;;;;5056988;28;20200;-66
2022/10/03 12:23:55;;;;;;;7.83;3.77;;;25.90;64.10;;;;;;5061325;28;20202;-66
2022/10/03 12:26:51;;;;;;;9.70;3.87;;;26.00;63.30;;;;;;5062877;28;20252;-66
2022/10/03 12:29:20;;;;;;;12.57;4.43;;;26.20;63.30;;;;;;5024135;28;20219;-66
2022/10/03 12:31:47;;;;;;;9.87;3.60;;;26.30;62.70;;;;;;5058056;28;20208;-66
2022/10/03 12:34:38;;;;;;;9.40;3.67;;;26.40;62.10;;;;;;5059492;28;20225;-66
2022/10/03 12:37:24;;;;;;;7.93;4.63;;;26.60;62.00;;;;;;5057338;28;20643;-66
2022/10/03 12:39:53;;;;;;;11.20;4.10;;;26.60;61.20;;;;;;5037653;28;20635;-66
2022/10/03 12:42:55;;;;;;;6.07;3.33;;;26.60;61.00;;;;;;5066422;28;20198;-66
2022/10/03 12:45:46;;;;;;;9.40;3.83;;;26.60;60.80;;;;;;5059765;28;20263;-66
2022/10/03 12:48:13;;;;;;;7.60;3.93;;;26.60;60.90;;;;;;5059386;28;20261;-66
2022/10/03 12:50:49;;;;;;;11.77;4.73;;;26.60;61.20;;;;;;5059873;28;20736;-66
2022/10/03 12:53:18;;;;;;;9.47;3.93;;;26.60;60.80;;;;;;5060728;28;20201;-66
2022/10/03 12:56:06;;;;;;;9.13;4.53;;;26.60;60.50;;;;;;5048258;28;20256;-66
2022/10/03 12:58:39;;;;;;;9.53;5.43;;;26.60;61.20;;;;;;5064350;28;20622;-66
2022/10/03 13:01:43;;;;;;;7.97;4.33;;;26.60;60.70;;;;;;5057844;28;20264;-66
2022/10/03 13:04:29;;;;;;;8.97;4.07;;;26.60;60.00;;;;;;5051812;28;20200;-64
2022/10/03 13:07:22;;;;;;;8.17;4.07;;;26.60;60.10;;;;;;5061203;28;20190;-65
2022/10/03 13:09:58;;;;;;;7.73;3.43;;;26.50;59.70;;;;;;5040625;28;20265;-65
2022/10/03 13:12:51;;;;;;;8.30;3.37;;;26.50;60.10;;;;;;5057843;28;20256;-67
2022/10/03 13:15:30;;;;;;;7.07;3.70;;;26.50;60.40;;;;;;5059344;28;20223;-65
2022/10/03 13:18:13;;;;;;;8.67;3.40;;;26.50;60.50;;;;;;5059346;28;20193;-66
2022/10/03 13:21:08;;;;;;;8.73;3.23;;;26.60;60.90;;;;;;5056735;28;20205;-65
2022/10/03 13:24:36;;;;;;;10.90;3.50;;;26.60;60.50;;;;;;5063893;28;20213;-65
2022/10/03 13:27:15;;;;;;;6.40;3.90;;;26.60;60.40;;;;;;5048633;28;20517;-64
2022/10/03 13:29:48;;;;;;;8.53;3.27;;;26.60;59.20;;;;;;5062030;28;20669;-68
2022/10/03 13:32:34;;;;;;;8.97;3.10;;;26.50;59.20;;;;;;5062022;28;20276;-69
2022/10/03 13:38:17;;;;;;;8.17;3.97;;;26.40;60.20;;;;;;5064551;28;20206;-66
2022/10/03 13:40:58;;;;;;;10.00;3.27;;;26.40;59.00;;;;;;5051874;28;20638;-65
2022/10/03 13:43:36;;;;;;;10.17;3.93;;;26.30;59.60;;;;;;5059022;28;20638;-66
2022/10/03 13:46:19;;;;;;;10.63;4.07;;;26.20;60.50;;;;;;5048562;28;20543;-67
2022/10/03 13:49:13;;;;;;;9.43;3.37;;;26.20;60.60;;;;;;5064736;28;20197;-66
2022/10/03 13:51:58;;;;;;;10.07;2.97;;;26.20;60.20;;;;;;5067300;28;20256;-65
2022/10/03 13:54:55;;;;;;;8.53;3.07;;;26.20;60.20;;;;;;5060331;28;20316;-66
2022/10/03 13:57:27;;;;;;;6.43;2.73;;;26.20;60.30;;;;;;5065206;28;20239;-69
2022/10/03 14:00:14;;;;;;;13.27;3.40;;;26.20;60.40;;;;;;5061663;28;20730;-65
2022/10/03 14:02:41;;;;;;;10.13;3.97;;;26.20;60.80;;;;;;5058925;28;20252;-64
2022/10/03 14:05:29;;;;;;;12.10;2.63;;;26.20;59.90;;;;;;5064798;28;20230;-66
2022/10/03 14:08:32;;;;;;;8.50;2.87;;;26.10;60.50;;;;;;5062656;28;20203;-66
2022/10/03 14:11:21;;;;;;;7.93;2.87;;;26.10;60.70;;;;;;5064722;28;20259;-67
2022/10/03 14:14:04;;;;;;;10.73;3.30;;;26.00;60.80;;;;;;5061541;28;20379;-69
2022/10/03 14:16:35;;;;;;;6.77;2.90;;;26.00;59.80;;;;;;5055955;28;20250;-66
2022/10/03 14:19:29;;;;;;;7.80;2.60;;;26.00;60.10;;;;;;5059431;28;20198;-67
2022/10/03 14:22:03;;;;;;;7.67;3.00;;;25.90;60.40;;;;;;5061455;28;20613;-65
2022/10/03 14:24:44;;;;;;;10.37;3.23;;;25.90;60.00;;;;;;5062316;28;20201;-68
2022/10/03 14:27:17;;;;;;;8.37;3.03;;;25.80;60.20;;;;;;5064066;28;20218;-65
2022/10/03 14:30:10;;;;;;;6.07;2.50;;;25.80;60.30;;;;;;5061734;28;20200;-66
2022/10/03 14:32:49;;;;;;;4.23;2.17;;;25.70;60.20;;;;;;5046958;28;20533;-68
2022/10/03 14:35:38;;;;;;;6.17;2.00;;;25.70;60.80;;;;;;5042791;28;20295;-64
2022/10/03 14:39:16;;;;;;;3.77;2.10;;;25.60;61.20;;;;;;5066972;28;20694;-65
2022/10/03 14:41:22;;;;;;;9.87;2.53;;;25.60;61.20;;;;;;5049759;28;20711;-65
2022/10/03 14:43:54;;;;;;;9.97;2.70;;;25.60;61.40;;;;;;5045151;28;20232;-66
2022/10/03 14:46:26;;;;;;;7.97;3.00;;;25.60;61.60;;;;;;5061871;28;20709;-70
2022/10/03 14:49:22;;;;;;;7.70;2.43;;;25.60;61.40;;;;;;5059791;28;20202;-66